createdAt,value
2018-04-14T00:04:51.151Z,72.40
2018-04-14T00:09:54.480Z,72.70
2018-04-14T00:14:57.561Z,72.40
2018-04-14T00:20:00.434Z,72.60
2018-04-14T00:25:04.132Z,72.50
2018-04-14T00:30:07.951Z,72.80
2018-04-14T00:35:11.703Z,72.20
2018-04-14T00:40:14.850Z,72.10
2018-04-14T00:45:17.654Z,72.00
2018-04-14T00:50:20.560Z,72.40
2018-04-14T00:55:23.699Z,72.80
2018-04-14T01:00:26.529Z,72.60
2018-04-14T01:05:29.329Z,72.80
2018-04-14T01:10:32.285Z,72.50
2018-04-14T01:15:35.474Z,73.00
2018-04-14T01:20:39.436Z,73.00
2018-04-14T01:25:42.467Z,73.00
2018-04-14T01:30:45.711Z,73.50
2018-04-14T01:35:48.653Z,73.40
2018-04-14T01:40:52.037Z,73.80
2018-04-14T01:45:55.371Z,73.10
2018-04-14T01:50:58.892Z,73.50
2018-04-14T01:56:02.874Z,73.10
2018-04-14T02:01:05.694Z,73.30
2018-04-14T02:06:08.415Z,73.50
2018-04-14T02:11:11.453Z,73.10
2018-04-14T02:16:14.440Z,73.30
2018-04-14T02:26:25.015Z,73.10
2018-04-14T02:31:28.311Z,73.10
2018-04-14T02:36:31.731Z,73.00
2018-04-14T02:41:34.823Z,72.60
2018-04-14T02:46:37.580Z,72.70
2018-04-14T02:51:41.378Z,73.40
2018-04-14T02:56:45.241Z,73.00
2018-04-14T03:01:48.786Z,73.40
2018-04-14T03:06:52.375Z,73.10
2018-04-14T03:11:55.699Z,72.90
2018-04-14T03:16:58.727Z,73.30
2018-04-14T03:22:02.301Z,73.60
2018-04-14T03:27:05.351Z,73.50
2018-04-14T03:32:09.022Z,73.90
2018-04-14T03:37:11.685Z,74.30
2018-04-14T03:42:14.414Z,73.80
2018-04-14T03:47:17.404Z,74.10
2018-04-14T03:52:20.439Z,74.20
2018-04-14T03:57:23.587Z,74.20
2018-04-14T04:02:26.375Z,74.30
2018-04-14T04:07:29.377Z,75.20
2018-04-14T04:12:32.221Z,75.20
2018-04-14T04:17:35.456Z,75.50
2018-04-14T04:22:49.904Z,75.60
2018-04-14T04:27:53.544Z,76.00
2018-04-14T04:32:56.833Z,75.80
2018-04-14T04:38:00.044Z,76.60
2018-04-14T04:43:02.896Z,76.70
2018-04-14T04:48:05.968Z,76.20
2018-04-14T04:53:08.984Z,76.70
2018-04-14T04:58:11.865Z,77.20
2018-04-14T05:03:15.515Z,76.30
2018-04-14T05:08:19.133Z,77.10
2018-04-14T05:13:22.287Z,77.60
2018-04-14T05:18:25.114Z,78.20
2018-04-14T05:23:29.269Z,77.90
2018-04-14T05:28:33.186Z,77.80
2018-04-14T05:33:36.257Z,77.70
2018-04-14T05:38:42.471Z,78.00
2018-04-14T05:43:45.252Z,78.20
2018-04-14T05:48:48.832Z,78.10
2018-04-14T05:53:52.687Z,78.00
2018-04-14T05:58:55.382Z,77.70
2018-04-14T06:03:58.152Z,78.20
2018-04-14T06:09:01.199Z,78.10
2018-04-14T06:14:04.233Z,78.00
2018-04-14T06:19:07.637Z,77.70
2018-04-14T06:24:10.230Z,77.10
2018-04-14T06:29:13.076Z,77.50
2018-04-14T06:34:15.842Z,75.40
2018-04-14T06:39:18.706Z,75.70
2018-04-14T06:44:21.416Z,74.10
2018-04-14T06:49:24.294Z,73.60
2018-04-14T06:54:27.108Z,73.50
2018-04-14T06:59:30.159Z,72.70
2018-04-14T07:04:33.708Z,71.30
2018-04-14T07:09:37.918Z,71.50
2018-04-14T07:14:40.588Z,70.70
2018-04-14T07:19:46.740Z,69.90
2018-04-14T07:24:50.003Z,69.20
2018-04-14T07:29:54.588Z,68.30
2018-04-14T07:34:57.851Z,67.60
2018-04-14T07:40:00.922Z,66.80
2018-04-14T07:45:03.890Z,66.00
2018-04-14T07:50:07.228Z,66.20
2018-04-14T07:55:09.991Z,64.60
2018-04-14T08:00:12.787Z,63.30
2018-04-14T08:05:15.574Z,63.00
2018-04-14T08:10:18.389Z,62.40
2018-04-14T08:15:21.149Z,61.90
2018-04-14T08:20:24.417Z,61.30
2018-04-14T08:25:27.142Z,61.00
2018-04-14T08:30:30.033Z,60.80
2018-04-14T08:35:35.180Z,60.10
2018-04-14T08:40:37.868Z,59.30
2018-04-14T08:45:40.512Z,59.20
2018-04-14T08:50:43.249Z,58.70
2018-04-14T08:55:46.252Z,58.40
2018-04-14T09:00:49.131Z,58.00
2018-04-14T09:05:53.414Z,58.40
2018-04-14T09:10:57.134Z,57.50
2018-04-14T09:16:00.725Z,57.50
2018-04-14T09:21:03.776Z,56.70
2018-04-14T09:26:07.350Z,56.20
2018-04-14T09:31:11.809Z,56.40
2018-04-14T09:36:15.851Z,55.70
2018-04-14T09:41:18.763Z,55.10
2018-04-14T09:46:21.527Z,55.40
2018-04-14T09:51:24.347Z,54.30
2018-04-14T09:56:27.271Z,54.50
2018-04-14T10:01:29.957Z,53.70
2018-04-14T10:06:32.994Z,53.60
2018-04-14T10:11:35.940Z,52.00
2018-04-14T10:16:40.170Z,53.00
2018-04-14T10:21:43.397Z,53.30
2018-04-14T10:26:46.550Z,52.60
2018-04-14T10:31:49.735Z,52.30
2018-04-14T10:36:54.110Z,51.30
2018-04-14T10:41:57.173Z,50.40
2018-04-14T10:47:00.898Z,49.70
2018-04-14T10:52:03.991Z,50.30
2018-04-14T10:57:08.312Z,48.90
2018-04-14T11:02:11.846Z,49.00
2018-04-14T11:07:15.685Z,50.30
2018-04-14T11:12:19.354Z,48.40
2018-04-14T11:17:25.180Z,47.70
2018-04-14T11:22:29.870Z,47.40
2018-04-14T11:27:33.097Z,46.50
2018-04-14T11:32:37.590Z,45.80
2018-04-14T11:37:41.671Z,46.60
2018-04-14T11:42:44.903Z,45.50
2018-04-14T11:47:47.977Z,46.30
2018-04-14T11:52:50.779Z,44.30
2018-04-14T11:57:53.614Z,45.30
2018-04-14T12:02:57.007Z,44.60
2018-04-14T12:07:59.919Z,44.30
2018-04-14T12:13:02.662Z,43.70
2018-04-14T12:18:05.449Z,42.80
2018-04-14T12:23:08.220Z,42.70
2018-04-14T12:28:11.562Z,42.10
2018-04-14T12:33:14.286Z,42.40
2018-04-14T12:38:17.217Z,40.90
2018-04-14T12:43:20.141Z,41.20
2018-04-14T12:48:23.144Z,41.20
2018-04-14T12:53:26.044Z,40.50
2018-04-14T12:58:28.925Z,39.80
2018-04-14T13:03:31.657Z,39.60
2018-04-14T13:08:34.386Z,40.10
2018-04-14T13:13:37.136Z,38.80
2018-04-14T13:18:39.974Z,38.90
2018-04-14T13:23:42.750Z,38.70
2018-04-14T13:28:45.604Z,39.00
2018-04-14T13:33:49.225Z,40.00
2018-04-14T13:38:52.761Z,39.70
2018-04-14T13:43:56.667Z,38.80
2018-04-14T13:48:59.708Z,39.50
2018-04-14T13:54:02.458Z,38.40
2018-04-14T13:59:05.241Z,37.40
2018-04-14T14:04:08.046Z,38.70
2018-04-14T14:09:10.687Z,38.20
2018-04-14T14:14:13.371Z,38.30
2018-04-14T14:19:16.120Z,37.70
2018-04-14T14:24:18.935Z,38.40
2018-04-14T14:29:21.673Z,37.80
2018-04-14T14:34:24.305Z,38.40
2018-04-14T14:39:27.035Z,38.60
2018-04-14T14:44:29.654Z,37.90
2018-04-14T14:49:32.464Z,37.30
2018-04-14T14:54:35.394Z,39.00
2018-04-14T14:59:38.159Z,38.50
2018-04-14T15:04:40.895Z,38.60
2018-04-14T15:09:43.611Z,38.80
2018-04-14T15:14:46.725Z,38.40
2018-04-14T15:19:50.335Z,39.70
2018-04-14T15:24:53.525Z,38.80
2018-04-14T15:29:56.288Z,38.00
2018-04-14T15:34:59.097Z,37.50
2018-04-14T15:40:01.963Z,39.00
2018-04-14T15:45:04.967Z,39.10
2018-04-14T15:50:07.760Z,41.20
2018-04-14T15:55:10.940Z,41.40
2018-04-14T16:00:13.855Z,40.70
2018-04-14T16:05:17.577Z,40.80
2018-04-14T16:10:20.536Z,41.40
2018-04-14T16:15:23.207Z,41.70
2018-04-14T16:20:25.959Z,41.00
2018-04-14T16:25:28.899Z,39.20
2018-04-14T16:30:32.207Z,39.20
2018-04-14T16:35:34.914Z,39.40
2018-04-14T16:40:37.866Z,40.00
2018-04-14T16:45:40.593Z,39.80
2018-04-14T16:50:43.384Z,40.20
2018-04-14T16:55:46.464Z,40.30
2018-04-14T17:00:49.516Z,40.40
2018-04-14T17:05:52.510Z,40.00
2018-04-14T17:10:55.394Z,40.30
2018-04-14T17:15:58.119Z,40.30
2018-04-14T17:21:00.959Z,40.80
2018-04-14T17:26:04.260Z,41.40
2018-04-14T17:31:08.030Z,42.30
2018-04-14T17:36:10.667Z,41.70
2018-04-14T17:41:14.034Z,42.10
2018-04-14T17:46:16.987Z,42.50
2018-04-14T17:51:19.845Z,42.70
2018-04-14T17:56:22.689Z,42.90
2018-04-14T18:01:25.547Z,43.90
2018-04-14T18:06:28.979Z,43.50
2018-04-14T18:11:31.802Z,43.50
2018-04-14T18:16:34.403Z,43.80
2018-04-14T18:21:37.754Z,43.90
2018-04-14T18:26:40.997Z,44.20
2018-04-14T18:31:44.171Z,44.40
2018-04-14T18:36:47.141Z,45.00
2018-04-14T18:41:50.222Z,45.70
2018-04-14T18:46:52.924Z,46.40
2018-04-14T18:51:57.289Z,46.90
2018-04-14T18:57:00.210Z,47.30
2018-04-14T19:02:03.318Z,48.10
2018-04-14T19:07:06.421Z,48.60
2018-04-14T19:12:09.187Z,48.90
2018-04-14T19:17:12.220Z,49.70
2018-04-14T19:22:14.912Z,49.80
2018-04-14T19:27:18.135Z,50.10
2018-04-14T19:32:20.965Z,50.50
2018-04-14T19:37:23.748Z,50.70
2018-04-14T19:42:28.375Z,51.10
2018-04-14T19:47:32.210Z,51.40
2018-04-14T19:52:35.310Z,51.70
2018-04-14T19:57:39.548Z,51.80
2018-04-14T20:02:42.385Z,52.20
2018-04-14T20:07:49.749Z,52.60
2018-04-14T20:12:59.940Z,53.00
2018-04-14T20:18:02.934Z,53.40
2018-04-14T20:23:06.255Z,53.50
2018-04-14T20:28:09.281Z,54.20
2018-04-14T20:33:12.011Z,54.30
2018-04-14T20:38:14.878Z,54.60
2018-04-14T20:43:17.626Z,54.90
2018-04-14T20:48:20.529Z,55.20
2018-04-14T20:53:23.214Z,55.40
2018-04-14T20:58:25.889Z,55.50
2018-04-14T21:03:29.390Z,55.80
2018-04-14T21:08:32.844Z,55.90
2018-04-14T21:13:36.323Z,56.20
2018-04-14T21:18:39.991Z,56.30
2018-04-14T21:23:42.998Z,56.30
2018-04-14T21:28:46.186Z,56.60
2018-04-14T21:33:49.085Z,56.80
2018-04-14T21:38:52.122Z,56.90
2018-04-14T21:49:03.682Z,57.20
2018-04-14T21:54:07.302Z,57.30
2018-04-14T21:59:09.951Z,57.40
2018-04-14T22:04:13.407Z,57.40
2018-04-14T22:09:17.121Z,57.60
2018-04-14T22:14:31.948Z,57.50
2018-04-14T22:19:35.322Z,57.80
2018-04-14T22:24:39.238Z,57.90
2018-04-14T22:29:42.030Z,58.10
2018-04-14T22:34:44.864Z,58.40
2018-04-14T22:39:47.753Z,58.50
2018-04-14T22:44:51.261Z,58.60
2018-04-14T22:49:53.920Z,58.60
2018-04-14T22:54:56.742Z,59.00
2018-04-14T22:59:59.534Z,59.10
2018-04-14T23:05:02.460Z,59.20
2018-04-14T23:10:05.356Z,59.40
2018-04-14T23:15:08.137Z,59.40
2018-04-14T23:20:11.460Z,59.70
2018-04-14T23:25:14.855Z,60.10
2018-04-14T23:30:17.545Z,59.90
2018-04-14T23:35:20.461Z,59.90
2018-04-14T23:40:23.168Z,60.60
2018-04-14T23:45:25.994Z,60.00
2018-04-14T23:50:28.709Z,60.30
2018-04-14T23:55:31.456Z,60.60
